sensor_id;sensor_type;location;lat;lon;timestamp;P1;durP1;ratioP1;P2;durP2;ratioP2
47429;SDS011;33181;49.246;7.372;2023-01-05T00:02:26;3.63;;;3.00;;
47429;SDS011;33181;49.246;7.372;2023-01-05T00:04:53;3.47;;;2.93;;
47429;SDS011;33181;49.246;7.372;2023-01-05T00:07:19;3.43;;;3.07;;
47429;SDS011;33181;49.246;7.372;2023-01-05T00:09:44;3.80;;;3.10;;
47429;SDS011;33181;49.246;7.372;2023-01-05T00:12:10;4.00;;;3.10;;
47429;SDS011;33181;49.246;7.372;2023-01-05T00:14:54;4.30;;;3.60;;
47429;SDS011;33181;49.246;7.372;2023-01-05T00:17:50;4.03;;;3.37;;
47429;SDS011;33181;49.246;7.372;2023-01-05T00:20:34;3.93;;;3.40;;
47429;SDS011;33181;49.246;7.372;2023-01-05T00:23:18;4.27;;;3.37;;
47429;SDS011;33181;49.246;7.372;2023-01-05T00:25:45;4.57;;;3.80;;
47429;SDS011;33181;49.246;7.372;2023-01-05T00:28:10;4.13;;;3.50;;
47429;SDS011;33181;49.246;7.372;2023-01-05T00:30:40;6.00;;;4.07;;
47429;SDS011;33181;49.246;7.372;2023-01-05T00:33:12;4.33;;;3.80;;
47429;SDS011;33181;49.246;7.372;2023-01-05T00:35:40;4.70;;;4.20;;
47429;SDS011;33181;49.246;7.372;2023-01-05T00:38:06;3.93;;;3.47;;
47429;SDS011;33181;49.246;7.372;2023-01-05T00:40:33;4.20;;;3.60;;
47429;SDS011;33181;49.246;7.372;2023-01-05T00:43:00;5.30;;;4.20;;
47429;SDS011;33181;49.246;7.372;2023-01-05T00:45:26;4.10;;;3.40;;
47429;SDS011;33181;49.246;7.372;2023-01-05T00:47:52;4.13;;;3.57;;
47429;SDS011;33181;49.246;7.372;2023-01-05T00:50:20;3.30;;;2.93;;
47429;SDS011;33181;49.246;7.372;2023-01-05T00:52:46;3.83;;;3.23;;
47429;SDS011;33181;49.246;7.372;2023-01-05T00:55:13;3.47;;;2.90;;
47429;SDS011;33181;49.246;7.372;2023-01-05T00:57:39;3.17;;;2.87;;
47429;SDS011;33181;49.246;7.372;2023-01-05T01:00:06;3.70;;;2.80;;
47429;SDS011;33181;49.246;7.372;2023-01-05T01:02:37;2.80;;;2.40;;
47429;SDS011;33181;49.246;7.372;2023-01-05T01:05:03;2.80;;;2.30;;
47429;SDS011;33181;49.246;7.372;2023-01-05T01:07:30;3.00;;;2.40;;
47429;SDS011;33181;49.246;7.372;2023-01-05T01:09:55;3.17;;;2.30;;
47429;SDS011;33181;49.246;7.372;2023-01-05T01:12:21;3.93;;;2.60;;
47429;SDS011;33181;49.246;7.372;2023-01-05T01:14:47;2.83;;;2.30;;
47429;SDS011;33181;49.246;7.372;2023-01-05T01:17:13;4.30;;;2.53;;
47429;SDS011;33181;49.246;7.372;2023-01-05T01:19:41;3.13;;;2.50;;
47429;SDS011;33181;49.246;7.372;2023-01-05T01:22:07;2.93;;;2.63;;
47429;SDS011;33181;49.246;7.372;2023-01-05T01:24:32;2.70;;;2.30;;
47429;SDS011;33181;49.246;7.372;2023-01-05T01:26:58;2.57;;;2.13;;
47429;SDS011;33181;49.246;7.372;2023-01-05T01:29:27;2.50;;;2.20;;
47429;SDS011;33181;49.246;7.372;2023-01-05T01:31:53;3.87;;;2.20;;
47429;SDS011;33181;49.246;7.372;2023-01-05T01:34:19;2.70;;;2.20;;
47429;SDS011;33181;49.246;7.372;2023-01-05T01:36:45;2.80;;;2.47;;
47429;SDS011;33181;49.246;7.372;2023-01-05T01:39:11;3.20;;;2.90;;
47429;SDS011;33181;49.246;7.372;2023-01-05T01:41:37;3.03;;;2.60;;
47429;SDS011;33181;49.246;7.372;2023-01-05T01:47:23;3.00;;;2.50;;
47429;SDS011;33181;49.246;7.372;2023-01-05T01:49:58;4.53;;;2.70;;
47429;SDS011;33181;49.246;7.372;2023-01-05T01:52:47;3.13;;;2.60;;
47429;SDS011;33181;49.246;7.372;2023-01-05T01:55:15;3.30;;;2.60;;
47429;SDS011;33181;49.246;7.372;2023-01-05T01:57:42;4.00;;;2.23;;
47429;SDS011;33181;49.246;7.372;2023-01-05T02:00:09;3.30;;;2.27;;
47429;SDS011;33181;49.246;7.372;2023-01-05T02:02:38;3.17;;;2.40;;
47429;SDS011;33181;49.246;7.372;2023-01-05T02:05:05;4.50;;;2.60;;
47429;SDS011;33181;49.246;7.372;2023-01-05T02:07:38;3.60;;;2.50;;
47429;SDS011;33181;49.246;7.372;2023-01-05T02:10:09;2.73;;;2.13;;
47429;SDS011;33181;49.246;7.372;2023-01-05T02:15:23;3.57;;;2.30;;
47429;SDS011;33181;49.246;7.372;2023-01-05T02:33:14;2.80;;;2.00;;
47429;SDS011;33181;49.246;7.372;2023-01-05T02:36:10;5.43;;;2.00;;
47429;SDS011;33181;49.246;7.372;2023-01-05T02:39:17;2.50;;;1.97;;
47429;SDS011;33181;49.246;7.372;2023-01-05T02:42:13;3.00;;;1.87;;
47429;SDS011;33181;49.246;7.372;2023-01-05T02:44:46;3.27;;;2.10;;
47429;SDS011;33181;49.246;7.372;2023-01-05T02:49:52;2.63;;;1.77;;
47429;SDS011;33181;49.246;7.372;2023-01-05T02:52:33;2.30;;;1.83;;
47429;SDS011;33181;49.246;7.372;2023-01-05T02:55:12;2.20;;;1.90;;
47429;SDS011;33181;49.246;7.372;2023-01-05T02:57:45;3.77;;;1.90;;
47429;SDS011;33181;49.246;7.372;2023-01-05T03:00:21;3.47;;;1.90;;
47429;SDS011;33181;49.246;7.372;2023-01-05T03:02:52;2.20;;;1.70;;
47429;SDS011;33181;49.246;7.372;2023-01-05T03:05:31;3.13;;;1.70;;
47429;SDS011;33181;49.246;7.372;2023-01-05T03:08:04;2.17;;;1.70;;
47429;SDS011;33181;49.246;7.372;2023-01-05T03:10:48;3.70;;;1.60;;
47429;SDS011;33181;49.246;7.372;2023-01-05T03:13:49;2.90;;;1.73;;
47429;SDS011;33181;49.246;7.372;2023-01-05T03:16:30;2.37;;;1.67;;
47429;SDS011;33181;49.246;7.372;2023-01-05T03:19:01;3.43;;;1.87;;
47429;SDS011;33181;49.246;7.372;2023-01-05T03:21:49;3.03;;;2.00;;
47429;SDS011;33181;49.246;7.372;2023-01-05T03:24:35;7.10;;;2.27;;
47429;SDS011;33181;49.246;7.372;2023-01-05T03:27:21;4.30;;;2.10;;
47429;SDS011;33181;49.246;7.372;2023-01-05T03:30:06;5.30;;;2.13;;
47429;SDS011;33181;49.246;7.372;2023-01-05T03:32:54;5.80;;;2.40;;
47429;SDS011;33181;49.246;7.372;2023-01-05T03:36:03;4.47;;;1.93;;
47429;SDS011;33181;49.246;7.372;2023-01-05T03:38:40;7.03;;;2.37;;
47429;SDS011;33181;49.246;7.372;2023-01-05T03:41:09;7.90;;;2.37;;
47429;SDS011;33181;49.246;7.372;2023-01-05T03:43:38;8.43;;;2.30;;
47429;SDS011;33181;49.246;7.372;2023-01-05T03:46:09;8.93;;;2.10;;
47429;SDS011;33181;49.246;7.372;2023-01-05T03:48:40;6.20;;;2.57;;
47429;SDS011;33181;49.246;7.372;2023-01-05T03:51:06;8.23;;;2.40;;
47429;SDS011;33181;49.246;7.372;2023-01-05T03:53:37;8.30;;;2.20;;
47429;SDS011;33181;49.246;7.372;2023-01-05T03:56:03;6.70;;;2.40;;
47429;SDS011;33181;49.246;7.372;2023-01-05T03:58:29;6.47;;;2.30;;
47429;SDS011;33181;49.246;7.372;2023-01-05T04:00:54;8.70;;;2.57;;
47429;SDS011;33181;49.246;7.372;2023-01-05T04:03:20;12.03;;;2.70;;
47429;SDS011;33181;49.246;7.372;2023-01-05T04:05:46;9.10;;;2.87;;
47429;SDS011;33181;49.246;7.372;2023-01-05T04:08:12;14.77;;;2.97;;
47429;SDS011;33181;49.246;7.372;2023-01-05T04:10:37;8.73;;;2.90;;
47429;SDS011;33181;49.246;7.372;2023-01-05T04:13:03;10.13;;;2.70;;
47429;SDS011;33181;49.246;7.372;2023-01-05T04:15:29;9.60;;;2.30;;
47429;SDS011;33181;49.246;7.372;2023-01-05T04:17:54;13.33;;;2.90;;
47429;SDS011;33181;49.246;7.372;2023-01-05T04:20:20;9.33;;;2.70;;
47429;SDS011;33181;49.246;7.372;2023-01-05T04:22:46;9.73;;;2.90;;
47429;SDS011;33181;49.246;7.372;2023-01-05T04:25:11;14.23;;;3.00;;
47429;SDS011;33181;49.246;7.372;2023-01-05T04:27:37;10.43;;;2.83;;
47429;SDS011;33181;49.246;7.372;2023-01-05T04:30:03;12.20;;;2.67;;
47429;SDS011;33181;49.246;7.372;2023-01-05T04:32:30;9.63;;;2.87;;
47429;SDS011;33181;49.246;7.372;2023-01-05T04:34:55;10.83;;;3.20;;
47429;SDS011;33181;49.246;7.372;2023-01-05T04:37:21;13.77;;;2.70;;
47429;SDS011;33181;49.246;7.372;2023-01-05T04:39:47;13.53;;;2.77;;
47429;SDS011;33181;49.246;7.372;2023-01-05T04:42:13;12.47;;;3.50;;
47429;SDS011;33181;49.246;7.372;2023-01-05T04:44:38;8.30;;;2.50;;
47429;SDS011;33181;49.246;7.372;2023-01-05T04:47:04;13.27;;;2.70;;
47429;SDS011;33181;49.246;7.372;2023-01-05T04:49:30;8.03;;;2.60;;
47429;SDS011;33181;49.246;7.372;2023-01-05T04:51:55;9.50;;;2.93;;
47429;SDS011;33181;49.246;7.372;2023-01-05T04:54:21;10.63;;;2.60;;
47429;SDS011;33181;49.246;7.372;2023-01-05T04:56:47;10.97;;;2.77;;
47429;SDS011;33181;49.246;7.372;2023-01-05T04:59:12;10.17;;;2.93;;
47429;SDS011;33181;49.246;7.372;2023-01-05T05:01:38;8.73;;;3.07;;
47429;SDS011;33181;49.246;7.372;2023-01-05T05:04:04;7.50;;;2.77;;
47429;SDS011;33181;49.246;7.372;2023-01-05T05:06:29;10.60;;;2.80;;
47429;SDS011;33181;49.246;7.372;2023-01-05T05:08:55;11.23;;;3.00;;
47429;SDS011;33181;49.246;7.372;2023-01-05T05:11:21;15.83;;;2.70;;
47429;SDS011;33181;49.246;7.372;2023-01-05T05:13:47;9.57;;;2.63;;
47429;SDS011;33181;49.246;7.372;2023-01-05T05:16:12;11.00;;;3.33;;
47429;SDS011;33181;49.246;7.372;2023-01-05T05:18:38;16.57;;;3.20;;
47429;SDS011;33181;49.246;7.372;2023-01-05T05:21:04;15.03;;;3.20;;
47429;SDS011;33181;49.246;7.372;2023-01-05T05:23:30;8.13;;;2.87;;
47429;SDS011;33181;49.246;7.372;2023-01-05T05:25:55;8.80;;;3.10;;
47429;SDS011;33181;49.246;7.372;2023-01-05T05:28:21;9.40;;;2.80;;
47429;SDS011;33181;49.246;7.372;2023-01-05T05:30:51;8.80;;;2.63;;
47429;SDS011;33181;49.246;7.372;2023-01-05T05:33:19;9.00;;;2.90;;
47429;SDS011;33181;49.246;7.372;2023-01-05T05:35:46;21.80;;;3.33;;
47429;SDS011;33181;49.246;7.372;2023-01-05T05:38:11;11.10;;;2.77;;
47429;SDS011;33181;49.246;7.372;2023-01-05T05:40:37;12.80;;;2.73;;
47429;SDS011;33181;49.246;7.372;2023-01-05T05:43:03;12.57;;;2.80;;
47429;SDS011;33181;49.246;7.372;2023-01-05T05:45:28;11.83;;;3.70;;
47429;SDS011;33181;49.246;7.372;2023-01-05T05:47:54;9.97;;;3.00;;
47429;SDS011;33181;49.246;7.372;2023-01-05T05:50:20;11.23;;;3.53;;
47429;SDS011;33181;49.246;7.372;2023-01-05T05:52:46;11.43;;;3.57;;
47429;SDS011;33181;49.246;7.372;2023-01-05T05:55:11;13.57;;;3.50;;
47429;SDS011;33181;49.246;7.372;2023-01-05T05:57:37;14.13;;;4.00;;
47429;SDS011;33181;49.246;7.372;2023-01-05T06:00:03;14.40;;;4.37;;
47429;SDS011;33181;49.246;7.372;2023-01-05T06:02:30;15.70;;;4.10;;
47429;SDS011;33181;49.246;7.372;2023-01-05T06:04:55;11.83;;;3.67;;
47429;SDS011;33181;49.246;7.372;2023-01-05T06:07:21;10.30;;;3.20;;
47429;SDS011;33181;49.246;7.372;2023-01-05T06:09:47;12.30;;;3.10;;
47429;SDS011;33181;49.246;7.372;2023-01-05T06:12:12;10.33;;;2.90;;
47429;SDS011;33181;49.246;7.372;2023-01-05T06:14:38;11.10;;;3.40;;
47429;SDS011;33181;49.246;7.372;2023-01-05T06:17:04;10.90;;;3.60;;
47429;SDS011;33181;49.246;7.372;2023-01-05T06:19:29;14.00;;;3.50;;
47429;SDS011;33181;49.246;7.372;2023-01-05T06:21:55;11.53;;;3.57;;
47429;SDS011;33181;49.246;7.372;2023-01-05T06:24:21;12.47;;;3.60;;
47429;SDS011;33181;49.246;7.372;2023-01-05T06:26:46;9.47;;;3.10;;
47429;SDS011;33181;49.246;7.372;2023-01-05T06:29:12;13.13;;;3.37;;
47429;SDS011;33181;49.246;7.372;2023-01-05T06:31:38;12.27;;;3.90;;
47429;SDS011;33181;49.246;7.372;2023-01-05T06:34:04;10.00;;;3.30;;
47429;SDS011;33181;49.246;7.372;2023-01-05T06:36:32;13.00;;;3.40;;
47429;SDS011;33181;49.246;7.372;2023-01-05T06:38:57;10.17;;;3.53;;
47429;SDS011;33181;49.246;7.372;2023-01-05T06:41:23;10.20;;;2.97;;
47429;SDS011;33181;49.246;7.372;2023-01-05T06:43:49;13.30;;;3.30;;
47429;SDS011;33181;49.246;7.372;2023-01-05T06:46:14;12.60;;;3.30;;
47429;SDS011;33181;49.246;7.372;2023-01-05T06:48:40;10.37;;;2.83;;
47429;SDS011;33181;49.246;7.372;2023-01-05T06:51:06;10.80;;;3.30;;
47429;SDS011;33181;49.246;7.372;2023-01-05T06:53:32;9.00;;;2.70;;
47429;SDS011;33181;49.246;7.372;2023-01-05T06:55:57;9.70;;;3.10;;
47429;SDS011;33181;49.246;7.372;2023-01-05T06:58:23;13.13;;;3.20;;
47429;SDS011;33181;49.246;7.372;2023-01-05T07:00:52;14.43;;;3.47;;
47429;SDS011;33181;49.246;7.372;2023-01-05T07:03:18;11.67;;;3.00;;
47429;SDS011;33181;49.246;7.372;2023-01-05T07:05:44;13.50;;;2.80;;
47429;SDS011;33181;49.246;7.372;2023-01-05T07:08:10;11.80;;;3.50;;
47429;SDS011;33181;49.246;7.372;2023-01-05T07:10:38;11.03;;;3.20;;
47429;SDS011;33181;49.246;7.372;2023-01-05T07:13:03;10.70;;;3.03;;
47429;SDS011;33181;49.246;7.372;2023-01-05T07:15:29;18.83;;;3.73;;
47429;SDS011;33181;49.246;7.372;2023-01-05T07:17:55;9.33;;;3.97;;
47429;SDS011;33181;49.246;7.372;2023-01-05T07:20:20;18.47;;;3.73;;
47429;SDS011;33181;49.246;7.372;2023-01-05T07:22:46;7.50;;;3.37;;
47429;SDS011;33181;49.246;7.372;2023-01-05T07:25:12;11.93;;;3.50;;
47429;SDS011;33181;49.246;7.372;2023-01-05T07:27:37;13.30;;;3.60;;
47429;SDS011;33181;49.246;7.372;2023-01-05T07:30:03;11.70;;;3.47;;
47429;SDS011;33181;49.246;7.372;2023-01-05T07:32:30;10.03;;;3.27;;
47429;SDS011;33181;49.246;7.372;2023-01-05T07:34:55;14.70;;;3.30;;
47429;SDS011;33181;49.246;7.372;2023-01-05T07:37:21;11.97;;;3.10;;
47429;SDS011;33181;49.246;7.372;2023-01-05T07:39:48;12.30;;;3.30;;
47429;SDS011;33181;49.246;7.372;2023-01-05T07:42:14;11.30;;;3.10;;
47429;SDS011;33181;49.246;7.372;2023-01-05T07:44:40;12.23;;;3.80;;
47429;SDS011;33181;49.246;7.372;2023-01-05T07:47:05;11.60;;;3.63;;
47429;SDS011;33181;49.246;7.372;2023-01-05T07:49:31;11.43;;;3.80;;
47429;SDS011;33181;49.246;7.372;2023-01-05T07:51:57;11.17;;;3.57;;
47429;SDS011;33181;49.246;7.372;2023-01-05T07:54:23;11.17;;;2.93;;
47429;SDS011;33181;49.246;7.372;2023-01-05T07:56:49;17.13;;;3.67;;
47429;SDS011;33181;49.246;7.372;2023-01-05T07:59:15;9.37;;;3.00;;
47429;SDS011;33181;49.246;7.372;2023-01-05T08:01:40;14.53;;;3.47;;
47429;SDS011;33181;49.246;7.372;2023-01-05T08:04:07;15.90;;;3.80;;
47429;SDS011;33181;49.246;7.372;2023-01-05T08:06:33;15.40;;;3.70;;
47429;SDS011;33181;49.246;7.372;2023-01-05T08:08:59;12.33;;;3.73;;
47429;SDS011;33181;49.246;7.372;2023-01-05T08:11:45;14.23;;;3.77;;
47429;SDS011;33181;49.246;7.372;2023-01-05T08:14:10;14.53;;;4.33;;
47429;SDS011;33181;49.246;7.372;2023-01-05T08:16:36;17.93;;;4.50;;
47429;SDS011;33181;49.246;7.372;2023-01-05T08:19:02;16.40;;;4.13;;
47429;SDS011;33181;49.246;7.372;2023-01-05T08:21:28;17.00;;;3.63;;
47429;SDS011;33181;49.246;7.372;2023-01-05T08:23:53;14.27;;;3.40;;
47429;SDS011;33181;49.246;7.372;2023-01-05T08:26:20;23.73;;;3.83;;
47429;SDS011;33181;49.246;7.372;2023-01-05T08:28:47;15.00;;;3.97;;
47429;SDS011;33181;49.246;7.372;2023-01-05T08:31:18;13.53;;;4.03;;
47429;SDS011;33181;49.246;7.372;2023-01-05T08:33:45;10.50;;;3.70;;
47429;SDS011;33181;49.246;7.372;2023-01-05T08:36:12;16.30;;;3.90;;
47429;SDS011;33181;49.246;7.372;2023-01-05T08:38:41;17.63;;;3.83;;
47429;SDS011;33181;49.246;7.372;2023-01-05T08:41:32;22.83;;;4.03;;
47429;SDS011;33181;49.246;7.372;2023-01-05T08:44:01;15.00;;;3.70;;
47429;SDS011;33181;49.246;7.372;2023-01-05T08:46:31;18.00;;;4.00;;
47429;SDS011;33181;49.246;7.372;2023-01-05T08:49:00;11.70;;;3.20;;
47429;SDS011;33181;49.246;7.372;2023-01-05T08:51:28;18.80;;;3.60;;
47429;SDS011;33181;49.246;7.372;2023-01-05T08:53:55;14.37;;;3.73;;
47429;SDS011;33181;49.246;7.372;2023-01-05T08:56:21;16.87;;;5.60;;
47429;SDS011;33181;49.246;7.372;2023-01-05T08:58:51;17.97;;;4.50;;
47429;SDS011;33181;49.246;7.372;2023-01-05T09:01:19;14.20;;;3.87;;
47429;SDS011;33181;49.246;7.372;2023-01-05T09:03:46;15.73;;;4.00;;
47429;SDS011;33181;49.246;7.372;2023-01-05T09:06:12;17.70;;;4.60;;
47429;SDS011;33181;49.246;7.372;2023-01-05T09:08:39;12.50;;;3.97;;
47429;SDS011;33181;49.246;7.372;2023-01-05T09:13:39;16.87;;;3.73;;
47429;SDS011;33181;49.246;7.372;2023-01-05T09:16:13;16.70;;;3.97;;
47429;SDS011;33181;49.246;7.372;2023-01-05T09:18:42;17.77;;;4.10;;
47429;SDS011;33181;49.246;7.372;2023-01-05T09:21:09;12.63;;;4.43;;
47429;SDS011;33181;49.246;7.372;2023-01-05T09:23:36;14.50;;;4.23;;
47429;SDS011;33181;49.246;7.372;2023-01-05T09:26:13;12.40;;;3.53;;
47429;SDS011;33181;49.246;7.372;2023-01-05T09:28:40;19.13;;;4.10;;
47429;SDS011;33181;49.246;7.372;2023-01-05T09:31:17;13.10;;;3.57;;
47429;SDS011;33181;49.246;7.372;2023-01-05T09:33:45;16.37;;;4.30;;
47429;SDS011;33181;49.246;7.372;2023-01-05T09:36:12;16.97;;;4.47;;
47429;SDS011;33181;49.246;7.372;2023-01-05T09:38:40;12.60;;;4.00;;
47429;SDS011;33181;49.246;7.372;2023-01-05T09:41:07;16.87;;;4.80;;
47429;SDS011;33181;49.246;7.372;2023-01-05T09:43:46;21.50;;;4.90;;
47429;SDS011;33181;49.246;7.372;2023-01-05T09:46:20;13.60;;;3.90;;
47429;SDS011;33181;49.246;7.372;2023-01-05T09:48:51;13.10;;;3.93;;
47429;SDS011;33181;49.246;7.372;2023-01-05T09:51:19;17.93;;;4.90;;
47429;SDS011;33181;49.246;7.372;2023-01-05T09:53:46;18.10;;;3.87;;
47429;SDS011;33181;49.246;7.372;2023-01-05T09:59:13;15.03;;;3.80;;
47429;SDS011;33181;49.246;7.372;2023-01-05T10:01:50;16.37;;;4.10;;
47429;SDS011;33181;49.246;7.372;2023-01-05T10:04:20;18.07;;;4.23;;
47429;SDS011;33181;49.246;7.372;2023-01-05T10:06:51;14.10;;;3.73;;
47429;SDS011;33181;49.246;7.372;2023-01-05T10:09:41;13.53;;;3.47;;
47429;SDS011;33181;49.246;7.372;2023-01-05T10:12:21;11.97;;;3.83;;
47429;SDS011;33181;49.246;7.372;2023-01-05T10:15:16;13.40;;;3.90;;
47429;SDS011;33181;49.246;7.372;2023-01-05T10:17:45;17.83;;;3.83;;
47429;SDS011;33181;49.246;7.372;2023-01-05T10:20:19;19.17;;;4.20;;
47429;SDS011;33181;49.246;7.372;2023-01-05T10:23:08;16.13;;;5.33;;
47429;SDS011;33181;49.246;7.372;2023-01-05T10:37:42;13.60;;;3.70;;
47429;SDS011;33181;49.246;7.372;2023-01-05T10:47:08;15.57;;;3.50;;
47429;SDS011;33181;49.246;7.372;2023-01-05T10:49:35;12.53;;;4.00;;
47429;SDS011;33181;49.246;7.372;2023-01-05T10:52:02;14.80;;;3.97;;
47429;SDS011;33181;49.246;7.372;2023-01-05T10:54:37;14.00;;;3.63;;
47429;SDS011;33181;49.246;7.372;2023-01-05T10:59:59;16.17;;;4.33;;
47429;SDS011;33181;49.246;7.372;2023-01-05T11:02:31;11.90;;;3.70;;
47429;SDS011;33181;49.246;7.372;2023-01-05T11:07:48;17.03;;;4.00;;
47429;SDS011;33181;49.246;7.372;2023-01-05T11:10:21;18.57;;;4.00;;
47429;SDS011;33181;49.246;7.372;2023-01-05T11:13:04;16.10;;;3.53;;
47429;SDS011;33181;49.246;7.372;2023-01-05T11:19:06;14.03;;;3.77;;
47429;SDS011;33181;49.246;7.372;2023-01-05T11:21:41;15.87;;;4.13;;
47429;SDS011;33181;49.246;7.372;2023-01-05T11:26:52;10.53;;;3.57;;
47429;SDS011;33181;49.246;7.372;2023-01-05T11:29:22;11.83;;;3.60;;
47429;SDS011;33181;49.246;7.372;2023-01-05T11:31:50;15.07;;;4.60;;
47429;SDS011;33181;49.246;7.372;2023-01-05T11:34:44;16.23;;;3.80;;
47429;SDS011;33181;49.246;7.372;2023-01-05T11:37:28;16.63;;;3.93;;
47429;SDS011;33181;49.246;7.372;2023-01-05T11:40:00;12.50;;;3.57;;
47429;SDS011;33181;49.246;7.372;2023-01-05T11:42:32;14.83;;;4.53;;
47429;SDS011;33181;49.246;7.372;2023-01-05T11:45:01;12.20;;;3.60;;
47429;SDS011;33181;49.246;7.372;2023-01-05T11:47:44;11.90;;;3.93;;
47429;SDS011;33181;49.246;7.372;2023-01-05T11:50:33;16.13;;;3.53;;
47429;SDS011;33181;49.246;7.372;2023-01-05T11:56:02;15.10;;;3.67;;
47429;SDS011;33181;49.246;7.372;2023-01-05T12:01:12;14.70;;;4.33;;
47429;SDS011;33181;49.246;7.372;2023-01-05T12:07:35;12.90;;;4.30;;
47429;SDS011;33181;49.246;7.372;2023-01-05T12:13:28;14.47;;;3.90;;
47429;SDS011;33181;49.246;7.372;2023-01-05T12:24:45;13.47;;;3.60;;
47429;SDS011;33181;49.246;7.372;2023-01-05T12:30:45;13.73;;;3.77;;
47429;SDS011;33181;49.246;7.372;2023-01-05T12:33:45;16.73;;;3.80;;
47429;SDS011;33181;49.246;7.372;2023-01-05T12:36:43;11.73;;;3.70;;
47429;SDS011;33181;49.246;7.372;2023-01-05T12:40:12;18.07;;;3.60;;
47429;SDS011;33181;49.246;7.372;2023-01-05T12:46:08;16.70;;;4.20;;
47429;SDS011;33181;49.246;7.372;2023-01-05T12:49:10;13.37;;;4.00;;
47429;SDS011;33181;49.246;7.372;2023-01-05T12:51:49;13.00;;;4.10;;
47429;SDS011;33181;49.246;7.372;2023-01-05T12:54:43;15.67;;;4.50;;
47429;SDS011;33181;49.246;7.372;2023-01-05T12:57:40;11.23;;;3.00;;
47429;SDS011;33181;49.246;7.372;2023-01-05T13:00:18;15.80;;;3.00;;
47429;SDS011;33181;49.246;7.372;2023-01-05T13:02:50;13.50;;;3.77;;
47429;SDS011;33181;49.246;7.372;2023-01-05T13:05:27;14.37;;;3.60;;
47429;SDS011;33181;49.246;7.372;2023-01-05T13:11:18;10.00;;;3.20;;
47429;SDS011;33181;49.246;7.372;2023-01-05T13:13:56;11.50;;;3.10;;
47429;SDS011;33181;49.246;7.372;2023-01-05T13:16:28;11.67;;;3.40;;
47429;SDS011;33181;49.246;7.372;2023-01-05T13:22:15;11.00;;;3.27;;
47429;SDS011;33181;49.246;7.372;2023-01-05T13:27:41;12.10;;;3.50;;
47429;SDS011;33181;49.246;7.372;2023-01-05T13:30:07;10.80;;;3.43;;
47429;SDS011;33181;49.246;7.372;2023-01-05T13:47:46;12.67;;;3.37;;
47429;SDS011;33181;49.246;7.372;2023-01-05T13:51:03;17.07;;;3.80;;
47429;SDS011;33181;49.246;7.372;2023-01-05T13:57:08;17.40;;;4.17;;
47429;SDS011;33181;49.246;7.372;2023-01-05T13:59:40;12.13;;;3.43;;
47429;SDS011;33181;49.246;7.372;2023-01-05T14:02:23;12.60;;;3.27;;
47429;SDS011;33181;49.246;7.372;2023-01-05T14:04:58;10.53;;;3.40;;
47429;SDS011;33181;49.246;7.372;2023-01-05T14:07:24;16.10;;;3.90;;
47429;SDS011;33181;49.246;7.372;2023-01-05T14:09:54;15.23;;;4.53;;
47429;SDS011;33181;49.246;7.372;2023-01-05T14:12:23;18.00;;;3.50;;
47429;SDS011;33181;49.246;7.372;2023-01-05T14:17:52;10.00;;;3.20;;
47429;SDS011;33181;49.246;7.372;2023-01-05T14:33:59;12.93;;;4.40;;
47429;SDS011;33181;49.246;7.372;2023-01-05T14:36:46;7.87;;;3.40;;
47429;SDS011;33181;49.246;7.372;2023-01-05T14:39:28;16.03;;;4.20;;
47429;SDS011;33181;49.246;7.372;2023-01-05T14:42:05;7.60;;;3.27;;
47429;SDS011;33181;49.246;7.372;2023-01-05T14:44:50;15.20;;;4.83;;
47429;SDS011;33181;49.246;7.372;2023-01-05T14:47:32;14.90;;;3.97;;
47429;SDS011;33181;49.246;7.372;2023-01-05T14:53:10;19.43;;;5.10;;
47429;SDS011;33181;49.246;7.372;2023-01-05T15:01:12;14.47;;;3.73;;
47429;SDS011;33181;49.246;7.372;2023-01-05T15:04:10;12.03;;;3.83;;
47429;SDS011;33181;49.246;7.372;2023-01-05T15:10:04;17.60;;;4.30;;
47429;SDS011;33181;49.246;7.372;2023-01-05T15:19:07;16.67;;;3.80;;
47429;SDS011;33181;49.246;7.372;2023-01-05T15:21:59;17.33;;;4.00;;
47429;SDS011;33181;49.246;7.372;2023-01-05T15:27:55;14.70;;;4.10;;
47429;SDS011;33181;49.246;7.372;2023-01-05T15:34:03;13.03;;;4.57;;
47429;SDS011;33181;49.246;7.372;2023-01-05T15:42:08;11.90;;;4.20;;
47429;SDS011;33181;49.246;7.372;2023-01-05T15:44:41;15.90;;;4.47;;
47429;SDS011;33181;49.246;7.372;2023-01-05T15:47:10;16.40;;;4.53;;
47429;SDS011;33181;49.246;7.372;2023-01-05T15:49:36;12.33;;;3.80;;
47429;SDS011;33181;49.246;7.372;2023-01-05T15:52:04;12.53;;;4.20;;
47429;SDS011;33181;49.246;7.372;2023-01-05T15:54:30;13.60;;;5.10;;
47429;SDS011;33181;49.246;7.372;2023-01-05T15:56:58;21.87;;;5.57;;
47429;SDS011;33181;49.246;7.372;2023-01-05T16:02:14;14.60;;;4.10;;
47429;SDS011;33181;49.246;7.372;2023-01-05T16:04:45;13.90;;;4.27;;
47429;SDS011;33181;49.246;7.372;2023-01-05T16:07:11;18.00;;;4.00;;
47429;SDS011;33181;49.246;7.372;2023-01-05T16:09:37;16.73;;;5.40;;
47429;SDS011;33181;49.246;7.372;2023-01-05T16:14:47;13.57;;;4.57;;
47429;SDS011;33181;49.246;7.372;2023-01-05T16:17:22;13.27;;;4.03;;
47429;SDS011;33181;49.246;7.372;2023-01-05T16:19:56;19.97;;;4.67;;
47429;SDS011;33181;49.246;7.372;2023-01-05T16:22:33;18.33;;;4.40;;
47429;SDS011;33181;49.246;7.372;2023-01-05T16:25:42;11.80;;;4.10;;
47429;SDS011;33181;49.246;7.372;2023-01-05T16:28:15;15.70;;;5.50;;
47429;SDS011;33181;49.246;7.372;2023-01-05T16:30:44;18.97;;;4.97;;
47429;SDS011;33181;49.246;7.372;2023-01-05T16:33:22;17.60;;;7.57;;
47429;SDS011;33181;49.246;7.372;2023-01-05T16:38:39;14.90;;;5.47;;
47429;SDS011;33181;49.246;7.372;2023-01-05T16:43:49;21.60;;;7.27;;
47429;SDS011;33181;49.246;7.372;2023-01-05T16:48:45;22.87;;;8.40;;
47429;SDS011;33181;49.246;7.372;2023-01-05T16:51:38;22.40;;;7.77;;
47429;SDS011;33181;49.246;7.372;2023-01-05T16:56:44;22.73;;;7.83;;
47429;SDS011;33181;49.246;7.372;2023-01-05T17:05:03;39.07;;;12.43;;
47429;SDS011;33181;49.246;7.372;2023-01-05T17:07:30;28.43;;;11.60;;
47429;SDS011;33181;49.246;7.372;2023-01-05T17:09:57;36.80;;;14.47;;
47429;SDS011;33181;49.246;7.372;2023-01-05T17:12:23;22.70;;;7.60;;
47429;SDS011;33181;49.246;7.372;2023-01-05T17:14:49;19.67;;;7.70;;
47429;SDS011;33181;49.246;7.372;2023-01-05T17:17:15;19.13;;;6.37;;
47429;SDS011;33181;49.246;7.372;2023-01-05T17:19:41;20.23;;;8.33;;
47429;SDS011;33181;49.246;7.372;2023-01-05T17:22:07;19.70;;;9.77;;
47429;SDS011;33181;49.246;7.372;2023-01-05T17:24:34;18.70;;;7.90;;
47429;SDS011;33181;49.246;7.372;2023-01-05T17:27:00;19.73;;;6.80;;
47429;SDS011;33181;49.246;7.372;2023-01-05T17:29:27;26.97;;;9.47;;
47429;SDS011;33181;49.246;7.372;2023-01-05T17:31:55;24.93;;;11.27;;
47429;SDS011;33181;49.246;7.372;2023-01-05T17:34:21;28.57;;;10.23;;
47429;SDS011;33181;49.246;7.372;2023-01-05T17:36:47;34.40;;;12.80;;
47429;SDS011;33181;49.246;7.372;2023-01-05T17:39:19;40.60;;;14.83;;
47429;SDS011;33181;49.246;7.372;2023-01-05T17:41:46;29.30;;;9.67;;
47429;SDS011;33181;49.246;7.372;2023-01-05T17:44:12;30.47;;;11.60;;
47429;SDS011;33181;49.246;7.372;2023-01-05T17:46:39;26.50;;;13.27;;
47429;SDS011;33181;49.246;7.372;2023-01-05T17:49:18;28.67;;;10.77;;
47429;SDS011;33181;49.246;7.372;2023-01-05T17:51:45;16.10;;;6.80;;
47429;SDS011;33181;49.246;7.372;2023-01-05T17:54:13;25.67;;;6.27;;
47429;SDS011;33181;49.246;7.372;2023-01-05T17:56:39;16.57;;;6.30;;
47429;SDS011;33181;49.246;7.372;2023-01-05T17:59:04;18.17;;;7.20;;
47429;SDS011;33181;49.246;7.372;2023-01-05T18:01:30;21.53;;;7.73;;
47429;SDS011;33181;49.246;7.372;2023-01-05T18:03:59;16.97;;;6.70;;
47429;SDS011;33181;49.246;7.372;2023-01-05T18:06:25;22.13;;;5.63;;
47429;SDS011;33181;49.246;7.372;2023-01-05T18:08:51;20.80;;;6.60;;